Time;durP1;ratioP1;P1;durP2;ratioP2;P2;SDS_P1;SDS_P2;PMS_P1;PMS_P2;Temp;Humidity;BMP_temperature;BMP_pressure;BME280_temperature;BME280_humidity;BME280_pressure;Samples;Min_cycle;Max_cycle;Signal;HPM_P1;HPM_P2
2023/03/22 00:00:28;;;;;;;;;;;;;;;;;;5093709;28;20003;-85
2023/03/22 00:02:54;;;;;;;;;;;;;;;;;;5093659;28;19958;-85
2023/03/22 00:05:20;;;;;;;;;;;;;;;;;;5093559;28;19916;-85
2023/03/22 00:07:49;;;;;;;;;;;;;;;;;;5093519;28;19916;-84
2023/03/22 00:10:14;;;;;;;;;;;;;;;;;;5093696;28;19916;-84
2023/03/22 00:12:40;;;;;;;;;;;;;;;;;;5093492;28;19969;-83
2023/03/22 00:15:06;;;;;;;;;;;;;;;;;;5075657;28;20371;-86
2023/03/22 00:17:31;;;;;;;;;;;;;;;;;;5075558;28;19974;-85
2023/03/22 00:19:57;;;;;;;;;;;;;;;;;;5093536;28;20390;-85
2023/03/22 00:22:23;;;;;;;;;;;;;;;;;;5068761;28;19924;-84
2023/03/22 00:24:48;;;;;;;;;;;;;;;;;;5073327;28;19926;-85
2023/03/22 00:27:14;;;;;;;;;;;;;;;;;;5071873;28;20011;-84
2023/03/22 00:29:40;;;;;;;;;;;;;;;;;;5073203;28;20286;-84
2023/03/22 00:32:05;;;;;;;;;;;;;;;;;;5073272;28;19923;-87
2023/03/22 00:34:31;;;;;;;;;;;;;;;;;;5081876;28;20015;-83
2023/03/22 00:36:57;;;;;;;;;;;;;;;;;;5063153;28;20328;-84
2023/03/22 00:39:22;;;;;;;;;;;;;;;;;;5073712;28;19916;-84
2023/03/22 00:41:48;;;;;;;;;;;;;;;;;;5091879;28;19912;-85
2023/03/22 00:44:13;;;;;;;;;;;;;;;;;;5093253;28;19920;-84
2023/03/22 00:46:38;;;;;;;;;;;;;;;;;;5075850;28;19917;-83
2023/03/22 00:49:04;;;;;;;;;;;;;;;;;;5073059;28;19939;-86
2023/03/22 00:51:29;;;;;;;;;;;;;;;;;;5055307;28;19916;-84
2023/03/22 00:53:55;;;;;;;;;;;;;;;;;;5058560;28;19920;-83
2023/03/22 00:56:21;;;;;;;;;;;;;;;;;;5075708;28;19967;-84
2023/03/22 00:58:47;;;;;;;;;;;;;;;;;;5096970;28;20014;-85
2023/03/22 01:01:13;;;;;;;;;;;;;;;;;;5096902;28;19926;-84
2023/03/22 01:03:40;;;;;;;;;;;;;;;;;;5096681;28;19919;-83
2023/03/22 01:06:06;;;;;;;;;;;;;;;;;;5078490;28;19923;-84
2023/03/22 01:08:32;;;;;;;;;;;;;;;;;;5096669;28;19916;-83
2023/03/22 01:10:58;;;;;;;;;;;;;;;;;;5078588;28;19981;-85
2023/03/22 01:13:23;;;;;;;;;;;;;;;;;;5078386;28;19916;-85
2023/03/22 01:15:49;;;;;;;;;;;;;;;;;;5096643;28;19920;-85
2023/03/22 01:18:15;;;;;;;;;;;;;;;;;;5078314;28;19912;-84
2023/03/22 01:20:40;;;;;;;;;;;;;;;;;;5096557;28;19916;-84
2023/03/22 01:23:05;;;;;;;;;;;;;;;;;;5078399;28;19961;-87
2023/03/22 01:25:31;;;;;;;;;;;;;;;;;;5096485;28;19912;-83
2023/03/22 01:27:56;;;;;;;;;;;;;;;;;;5089905;28;19917;-85
2023/03/22 01:30:22;;;;;;;;;;;;;;;;;;5076082;28;20220;-83
2023/03/22 01:32:47;;;;;;;;;;;;;;;;;;5076027;28;19976;-87
2023/03/22 01:35:12;;;;;;;;;;;;;;;;;;5058172;28;19927;-83
2023/03/22 01:37:38;;;;;;;;;;;;;;;;;;5075941;28;19921;-83
2023/03/22 01:40:04;;;;;;;;;;;;;;;;;;5075905;28;20073;-84
2023/03/22 01:42:29;;;;;;;;;;;;;;;;;;5075774;28;20344;-83
2023/03/22 01:45:13;;;;;;;;;;;;;;;;;;5075916;28;19916;-83
2023/03/22 01:47:40;;;;;;;;;;;;;;;;;;5075698;28;20364;-83
2023/03/22 01:50:06;;;;;;;;;;;;;;;;;;5075677;28;19916;-84
2023/03/22 01:52:31;;;;;;;;;;;;;;;;;;5075800;28;19916;-84
2023/03/22 01:54:57;;;;;;;;;;;;;;;;;;5075256;28;19920;-87
2023/03/22 01:57:23;;;;;;;;;;;;;;;;;;5057619;28;19916;-84
2023/03/22 01:59:49;;;;;;;;;;;;;;;;;;5075609;28;19916;-83
2023/03/22 02:02:17;;;;;;;;;;;;;;;;;;5075559;28;20372;-83
2023/03/22 02:04:44;;;;;;;;;;;;;;;;;;5075858;28;20398;-83
2023/03/22 02:07:14;;;;;;;;;;;;;;;;;;5057767;28;19919;-86
2023/03/22 02:09:41;;;;;;;;;;;;;;;;;;5075600;28;19927;-84
2023/03/22 02:12:24;;;;;;;;;;;;;;;;;;5075342;28;20406;-84
2023/03/22 02:15:02;;;;;;;;;;;;;;;;;;5057102;28;19920;-83
2023/03/22 02:17:37;;;;;;;;;;;;;;;;;;5065755;28;19924;-83
2023/03/22 02:20:18;;;;;;;;;;;;;;;;;;5058229;28;19942;-87
2023/03/22 02:22:51;;;;;;;;;;;;;;;;;;5089920;28;19917;-83
2023/03/22 02:25:23;;;;;;;;;;;;;;;;;;5092176;28;19927;-83
2023/03/22 02:27:48;;;;;;;;;;;;;;;;;;5070045;28;19916;-86
2023/03/22 02:30:32;;;;;;;;;;;;;;;;;;5084215;28;19923;-88
2023/03/22 02:33:06;;;;;;;;;;;;;;;;;;5058374;28;20376;-86
2023/03/22 02:35:58;;;;;;;;;;;;;;;;;;5074946;28;19939;-85
2023/03/22 02:38:44;;;;;;;;;;;;;;;;;;5072614;28;19917;-88
2023/03/22 02:41:27;;;;;;;;;;;;;;;;;;5074678;28;19920;-87
2023/03/22 02:44:14;;;;;;;;;;;;;;;;;;5056688;28;19948;-86
2023/03/22 02:46:43;;;;;;;;;;;;;;;;;;5074522;28;20007;-86
2023/03/22 02:49:08;;;;;;;;;;;;;;;;;;5074587;28;19936;-85
2023/03/22 02:51:45;;;;;;;;;;;;;;;;;;5056574;28;19947;-87
2023/03/22 02:54:48;;;;;;;;;;;;;;;;;;5074234;28;19920;-86
2023/03/22 02:57:18;;;;;;;;;;;;;;;;;;5032174;28;20360;-86
2023/03/22 02:59:44;;;;;;;;;;;;;;;;;;5032198;28;20368;-85
2023/03/22 03:02:12;;;;;;;;;;;;;;;;;;5032194;28;19925;-85
2023/03/22 03:04:40;;;;;;;;;;;;;;;;;;5032254;28;19924;-86
2023/03/22 03:07:08;;;;;;;;;;;;;;;;;;5031891;28;19917;-88
2023/03/22 03:09:34;;;;;;;;;;;;;;;;;;5031978;28;19917;-87
2023/03/22 03:12:00;;;;;;;;;;;;;;;;;;5032043;28;19964;-84
2023/03/22 03:14:26;;;;;;;;;;;;;;;;;;5031154;28;20459;-86
2023/03/22 03:17:10;;;;;;;;;;;;;;;;;;5031868;28;20396;-84
2023/03/22 03:19:56;;;;;;;;;;;;;;;;;;5031895;28;20416;-86
2023/03/22 03:22:37;;;;;;;;;;;;;;;;;;5031329;28;19917;-86
2023/03/22 03:25:10;;;;;;;;;;;;;;;;;;5048324;28;19924;-85
2023/03/22 03:27:39;;;;;;;;;;;;;;;;;;5046126;28;20344;-86
2023/03/22 03:30:12;;;;;;;;;;;;;;;;;;5073695;28;19970;-88
2023/03/22 03:32:51;;;;;;;;;;;;;;;;;;5055667;28;20015;-87
2023/03/22 03:35:21;;;;;;;;;;;;;;;;;;5055637;28;19920;-86
2023/03/22 03:37:56;;;;;;;;;;;;;;;;;;5073410;28;19969;-85
2023/03/22 03:40:24;;;;;;;;;;;;;;;;;;5055593;28;19923;-85
2023/03/22 03:42:51;;;;;;;;;;;;;;;;;;5073496;28;19928;-86
2023/03/22 03:45:18;;;;;;;;;;;;;;;;;;5073522;28;19916;-84
2023/03/22 03:47:44;;;;;;;;;;;;;;;;;;5073409;28;20379;-86
2023/03/22 03:50:11;;;;;;;;;;;;;;;;;;5073340;28;19924;-85
2023/03/22 03:52:36;;;;;;;;;;;;;;;;;;5055380;28;19962;-84
2023/03/22 03:55:02;;;;;;;;;;;;;;;;;;5073062;28;19921;-85
2023/03/22 03:57:27;;;;;;;;;;;;;;;;;;5088987;28;20743;-88
2023/03/22 03:59:52;;;;;;;;;;;;;;;;;;5055377;28;19920;-86
2023/03/22 04:02:18;;;;;;;;;;;;;;;;;;5073193;28;19920;-87
2023/03/22 04:04:43;;;;;;;;;;;;;;;;;;5073332;28;19927;-86
2023/03/22 04:07:09;;;;;;;;;;;;;;;;;;5073194;28;19925;-84
2023/03/22 04:09:36;;;;;;;;;;;;;;;;;;5073198;28;20397;-84
2023/03/22 04:12:02;;;;;;;;;;;;;;;;;;5073187;28;19962;-85
2023/03/22 04:14:27;;;;;;;;;;;;;;;;;;5073086;28;19917;-84
2023/03/22 04:16:53;;;;;;;;;;;;;;;;;;5073140;28;19924;-84
2023/03/22 04:19:19;;;;;;;;;;;;;;;;;;5073234;28;19916;-84
2023/03/22 04:21:45;;;;;;;;;;;;;;;;;;5073143;28;19974;-85
2023/03/22 04:24:11;;;;;;;;;;;;;;;;;;5074080;28;19929;-85
2023/03/22 04:26:36;;;;;;;;;;;;;;;;;;5068499;28;19913;-84
2023/03/22 04:29:02;;;;;;;;;;;;;;;;;;5077172;28;19988;-85
2023/03/22 04:31:28;;;;;;;;;;;;;;;;;;5076975;28;20380;-83
2023/03/22 04:33:55;;;;;;;;;;;;;;;;;;5107344;28;19923;-84
2023/03/22 04:36:24;;;;;;;;;;;;;;;;;;5096450;28;20423;-85
2023/03/22 04:38:50;;;;;;;;;;;;;;;;;;5076889;28;19920;-85
2023/03/22 04:41:16;;;;;;;;;;;;;;;;;;5059024;28;19917;-84
2023/03/22 04:43:45;;;;;;;;;;;;;;;;;;5042262;28;20327;-84
2023/03/22 04:46:11;;;;;;;;;;;;;;;;;;5058875;28;19995;-84
2023/03/22 04:48:49;;;;;;;;;;;;;;;;;;5092872;28;20027;-84
2023/03/22 04:51:16;;;;;;;;;;;;;;;;;;5072083;28;19916;-85
2023/03/22 04:56:33;;;;;;;;;;;;;;;;;;5038126;28;19925;-85
2023/03/22 04:58:59;;;;;;;;;;;;;;;;;;5044852;28;20357;-85
2023/03/22 05:01:27;;;;;;;;;;;;;;;;;;5048252;28;19917;-83
2023/03/22 05:07:41;;;;;;;;;;;;;;;;;;4974798;28;20386;-85
2023/03/22 05:10:28;;;;;;;;;;;;;;;;;;4957367;28;19922;-84
2023/03/22 05:23:11;;;;;;;;;;;;;;;;;;;;;
2023/03/22 05:42:01;;;;;;;;;;;;;;;;;;4805949;29;19928;-83
2023/03/22 05:44:04;;;;;;;;;;;;;;;;;;4824828;29;19916;-84
2023/03/22 05:46:30;;;;;;;;;;;;;;;;;;4842627;29;20475;-82
2023/03/22 05:48:55;;;;;;;;;;;;;;;;;;4845603;29;19924;-82
2023/03/22 05:51:24;;;;;;;;;;;;;;;;;;4879477;29;19972;-82
2023/03/22 05:53:50;;;;;;;;;;;;;;;;;;4894665;29;19928;-82
2023/03/22 05:56:15;;;;;;;;;;;;;;;;;;4886154;29;19963;-84
2023/03/22 05:58:41;;;;;;;;;;;;;;;;;;4900207;29;19966;-82
2023/03/22 06:01:07;;;;;;;;;;;;;;;;;;4916924;29;20006;-83
2023/03/22 06:03:33;;;;;;;;;;;;;;;;;;4916997;29;19919;-82
2023/03/22 06:05:59;;;;;;;;;;;;;;;;;;4916810;29;19930;-81
2023/03/22 06:08:25;;;;;;;;;;;;;;;;;;4901046;29;19962;-82
2023/03/22 06:10:51;;;;;;;;;;;;;;;;;;4917403;29;19973;-83
2023/03/22 06:13:19;;;;;;;;;;;;;;;;;;4954808;29;19990;-83
2023/03/22 06:15:45;;;;;;;;;;;;;;;;;;4968431;28;20002;-83
2023/03/22 06:18:11;;;;;;;;;;;;;;;;;;4974165;28;19926;-82
2023/03/22 06:20:37;;;;;;;;;;;;;;;;;;5019363;28;19973;-83
2023/03/22 06:23:03;;;;;;;;;;;;;;;;;;5074889;28;20287;-83
2023/03/22 06:25:28;;;;;;;;;;;;;;;;;;5056985;28;19923;-83
2023/03/22 06:27:54;;;;;;;;;;;;;;;;;;5056835;28;20287;-83
2023/03/22 06:30:19;;;;;;;;;;;;;;;;;;5074753;28;19920;-83
2023/03/22 06:32:45;;;;;;;;;;;;;;;;;;5075052;28;19917;-83
2023/03/22 06:35:10;;;;;;;;;;;;;;;;;;5074660;28;20007;-83
2023/03/22 06:37:36;;;;;;;;;;;;;;;;;;5074816;28;19963;-82
2023/03/22 06:40:01;;;;;;;;;;;;;;;;;;5074824;28;19920;-83
2023/03/22 06:42:29;;;;;;;;;;;;;;;;;;5074858;28;19970;-82
2023/03/22 06:44:55;;;;;;;;;;;;;;;;;;5075966;28;19916;-83
2023/03/22 06:47:20;;;;;;;;;;;;;;;;;;5082583;28;19917;-83
2023/03/22 06:49:46;;;;;;;;;;;;;;;;;;5082449;28;19969;-83
2023/03/22 06:52:11;;;;;;;;;;;;;;;;;;5086110;28;19916;-82
2023/03/22 06:54:36;;;;;;;;;;;;;;;;;;5086378;28;19963;-82
2023/03/22 06:57:02;;;;;;;;;;;;;;;;;;5081736;28;20397;-82
2023/03/22 06:59:27;;;;;;;;;;;;;;;;;;5059702;28;19917;-81
2023/03/22 07:01:53;;;;;;;;;;;;;;;;;;5078216;28;19985;-83
2023/03/22 07:04:18;;;;;;;;;;;;;;;;;;5076052;28;20291;-82
2023/03/22 07:06:44;;;;;;;;;;;;;;;;;;5074442;28;19921;-83
2023/03/22 07:09:09;;;;;;;;;;;;;;;;;;5074435;28;19924;-82
2023/03/22 07:11:35;;;;;;;;;;;;;;;;;;5074253;28;19969;-83
2023/03/22 07:14:00;;;;;;;;;;;;;;;;;;5074237;28;19916;-82
2023/03/22 07:16:25;;;;;;;;;;;;;;;;;;5056065;28;19920;-82
2023/03/22 07:18:51;;;;;;;;;;;;;;;;;;5073948;28;19913;-84
2023/03/22 07:21:16;;;;;;;;;;;;;;;;;;5073875;28;19920;-83
2023/03/22 07:23:42;;;;;;;;;;;;;;;;;;5073857;28;19916;-82
2023/03/22 07:26:07;;;;;;;;;;;;;;;;;;5073713;28;19919;-82
2023/03/22 07:28:34;;;;;;;;;;;;;;;;;;5073676;28;19920;-82
2023/03/22 07:31:03;;;;;;;;;;;;;;;;;;5073722;28;19939;-83
2023/03/22 07:33:28;;;;;;;;;;;;;;;;;;5073699;28;19916;-83
2023/03/22 07:35:54;;;;;;;;;;;;;;;;;;5073504;28;19923;-85
2023/03/22 07:38:19;;;;;;;;;;;;;;;;;;5073571;28;19924;-84
2023/03/22 07:40:45;;;;;;;;;;;;;;;;;;5073538;28;20260;-84
2023/03/22 07:43:12;;;;;;;;;;;;;;;;;;5073471;28;19935;-83
2023/03/22 07:45:38;;;;;;;;;;;;;;;;;;5055492;28;20380;-84
2023/03/22 07:48:03;;;;;;;;;;;;;;;;;;5073403;28;19937;-85
2023/03/22 07:50:28;;;;;;;;;;;;;;;;;;5073388;28;20086;-83
2023/03/22 07:52:54;;;;;;;;;;;;;;;;;;5073288;28;19923;-84
2023/03/22 07:55:19;;;;;;;;;;;;;;;;;;5072959;28;20311;-83
2023/03/22 07:57:45;;;;;;;;;;;;;;;;;;5073326;28;19916;-83
2023/03/22 08:00:10;;;;;;;;;;;;;;;;;;5072937;28;19978;-83
2023/03/22 08:02:37;;;;;;;;;;;;;;;;;;5073234;28;20284;-83
2023/03/22 08:05:02;;;;;;;;;;;;;;;;;;5073239;28;19966;-84
2023/03/22 08:07:29;;;;;;;;;;;;;;;;;;5055249;28;19917;-83
2023/03/22 08:09:55;;;;;;;;;;;;;;;;;;5073121;28;20300;-85
2023/03/22 08:12:21;;;;;;;;;;;;;;;;;;5073082;28;19916;-84
2023/03/22 08:14:49;;;;;;;;;;;;;;;;;;5073084;28;19923;-85
2023/03/22 08:17:16;;;;;;;;;;;;;;;;;;5072945;28;19916;-84
2023/03/22 08:19:41;;;;;;;;;;;;;;;;;;5073026;28;19912;-84
2023/03/22 08:22:06;;;;;;;;;;;;;;;;;;5072995;28;19917;-84
2023/03/22 08:24:32;;;;;;;;;;;;;;;;;;5073040;28;19916;-83
2023/03/22 08:26:57;;;;;;;;;;;;;;;;;;5072984;28;19912;-84
2023/03/22 08:29:23;;;;;;;;;;;;;;;;;;5072925;28;19923;-85
2023/03/22 08:31:49;;;;;;;;;;;;;;;;;;5072953;28;19921;-83
2023/03/22 08:34:14;;;;;;;;;;;;;;;;;;5054954;28;19926;-84
2023/03/22 08:36:40;;;;;;;;;;;;;;;;;;5072904;28;20007;-85
2023/03/22 08:39:07;;;;;;;;;;;;;;;;;;5072781;28;19939;-85
2023/03/22 08:41:32;;;;;;;;;;;;;;;;;;5073089;28;19956;-84
2023/03/22 08:43:58;;;;;;;;;;;;;;;;;;5072829;28;20379;-84
2023/03/22 08:46:23;;;;;;;;;;;;;;;;;;5072776;28;19950;-85
2023/03/22 08:48:52;;;;;;;;;;;;;;;;;;5054937;28;19920;-84
2023/03/22 08:51:18;;;;;;;;;;;;;;;;;;5072856;28;19913;-84
2023/03/22 08:53:44;;;;;;;;;;;;;;;;;;5072488;28;20352;-84
2023/03/22 08:56:10;;;;;;;;;;;;;;;;;;5072623;28;19921;-84
2023/03/22 08:58:35;;;;;;;;;;;;;;;;;;5072652;28;19923;-83
2023/03/22 09:01:01;;;;;;;;;;;;;;;;;;5072675;28;19993;-85
2023/03/22 09:03:26;;;;;;;;;;;;;;;;;;5072686;28;19927;-84
2023/03/22 09:05:52;;;;;;;;;;;;;;;;;;5072556;28;19924;-84
2023/03/22 09:08:17;;;;;;;;;;;;;;;;;;5072544;28;19927;-83
2023/03/22 09:10:43;;;;;;;;;;;;;;;;;;5072634;28;19917;-84
2023/03/22 09:13:08;;;;;;;;;;;;;;;;;;5073896;28;19924;-84
2023/03/22 09:15:33;;;;;;;;;;;;;;;;;;5076226;28;19920;-83
2023/03/22 09:17:59;;;;;;;;;;;;;;;;;;5075976;28;20015;-84
2023/03/22 09:20:24;;;;;;;;;;;;;;;;;;5076057;28;19947;-83
2023/03/22 09:22:52;;;;;;;;;;;;;;;;;;5075946;28;19924;-83
2023/03/22 09:25:18;;;;;;;;;;;;;;;;;;5076028;28;20463;-83
2023/03/22 09:27:43;;;;;;;;;;;;;;;;;;5075878;28;19920;-83
2023/03/22 09:30:10;;;;;;;;;;;;;;;;;;5075943;28;19920;-84
2023/03/22 09:32:35;;;;;;;;;;;;;;;;;;5075750;28;19962;-83
2023/03/22 09:35:00;;;;;;;;;;;;;;;;;;5075734;28;19921;-84
2023/03/22 09:37:29;;;;;;;;;;;;;;;;;;5075765;28;20348;-83
2023/03/22 09:39:55;;;;;;;;;;;;;;;;;;5075726;28;19920;-84
2023/03/22 09:42:38;;;;;;;;;;;;;;;;;;5075696;28;20384;-83
2023/03/22 09:45:05;;;;;;;;;;;;;;;;;;5075662;28;19916;-83
2023/03/22 09:47:35;;;;;;;;;;;;;;;;;;5075504;28;19912;-84
2023/03/22 09:50:04;;;;;;;;;;;;;;;;;;5075575;28;19927;-85
2023/03/22 09:52:29;;;;;;;;;;;;;;;;;;5075433;28;19916;-86
2023/03/22 09:54:55;;;;;;;;;;;;;;;;;;5075294;28;20399;-84
2023/03/22 09:57:31;;;;;;;;;;;;;;;;;;5075301;28;19960;-83
2023/03/22 10:00:11;;;;;;;;;;;;;;;;;;5075405;28;20011;-85
2023/03/22 10:02:39;;;;;;;;;;;;;;;;;;5075324;28;19920;-84
2023/03/22 10:05:11;;;;;;;;;;;;;;;;;;5075677;28;19916;-83
2023/03/22 10:07:39;;;;;;;;;;;;;;;;;;5075287;28;19925;-85
2023/03/22 10:10:07;;;;;;;;;;;;;;;;;;5075136;28;19924;-85
2023/03/22 10:12:32;;;;;;;;;;;;;;;;;;5075150;28;19961;-85
2023/03/22 10:15:15;;;;;;;;;;;;;;;;;;5075108;28;19995;-84
2023/03/22 10:17:45;;;;;;;;;;;;;;;;;;5075062;28;20269;-85
2023/03/22 10:20:25;;;;;;;;;;;;;;;;;;5075241;28;19916;-85
2023/03/22 10:22:52;;;;;;;;;;;;;;;;;;5074996;28;20368;-84
2023/03/22 10:25:20;;;;;;;;;;;;;;;;;;5056652;28;20368;-83
2023/03/22 10:27:47;;;;;;;;;;;;;;;;;;5074841;28;20011;-86
2023/03/22 10:30:23;;;;;;;;;;;;;;;;;;5074809;28;20437;-85
2023/03/22 10:32:57;;;;;;;;;;;;;;;;;;5074886;28;20295;-85
2023/03/22 10:35:22;;;;;;;;;;;;;;;;;;5074653;28;19956;-85
2023/03/22 10:37:48;;;;;;;;;;;;;;;;;;5074707;28;19924;-84
2023/03/22 10:40:40;;;;;;;;;;;;;;;;;;5074467;28;19923;-84
2023/03/22 10:43:15;;;;;;;;;;;;;;;;;;5071399;28;19984;-86
2023/03/22 10:45:41;;;;;;;;;;;;;;;;;;5056619;28;19970;-83
2023/03/22 10:48:23;;;;;;;;;;;;;;;;;;5074599;28;20326;-84
2023/03/22 10:50:48;;;;;;;;;;;;;;;;;;5074464;28;19916;-82
2023/03/22 10:53:17;;;;;;;;;;;;;;;;;;5074177;28;19922;-84
2023/03/22 10:55:43;;;;;;;;;;;;;;;;;;5074094;28;19921;-83
2023/03/22 10:58:14;;;;;;;;;;;;;;;;;;5074156;28;20008;-83
2023/03/22 11:00:50;;;;;;;;;;;;;;;;;;5074119;28;19924;-84
2023/03/22 11:07:06;;;;;;;;;;;;;;;;;;5058044;28;19963;-83
2023/03/22 11:12:52;;;;;;;;;;;;;;;;;;5064773;28;19985;-85
2023/03/22 11:15:25;;;;;;;;;;;;;;;;;;5073726;28;20364;-82
2023/03/22 11:17:52;;;;;;;;;;;;;;;;;;5073833;28;19920;-82
2023/03/22 11:20:18;;;;;;;;;;;;;;;;;;5073834;28;19916;-83
2023/03/22 11:22:48;;;;;;;;;;;;;;;;;;5073733;28;19920;-81
2023/03/22 11:25:16;;;;;;;;;;;;;;;;;;5073660;28;20389;-82
2023/03/22 11:27:50;;;;;;;;;;;;;;;;;;5073667;28;20031;-84
2023/03/22 11:30:24;;;;;;;;;;;;;;;;;;5073569;28;19920;-85
2023/03/22 11:32:58;;;;;;;;;;;;;;;;;;5073617;28;20454;-84
2023/03/22 11:35:27;;;;;;;;;;;;;;;;;;5072790;28;19960;-83
2023/03/22 11:37:53;;;;;;;;;;;;;;;;;;5073596;28;19920;-84
2023/03/22 11:40:18;;;;;;;;;;;;;;;;;;5073471;28;19912;-83
2023/03/22 11:43:07;;;;;;;;;;;;;;;;;;5073263;28;19939;-83
2023/03/22 11:45:35;;;;;;;;;;;;;;;;;;5064154;28;19920;-83
2023/03/22 11:48:05;;;;;;;;;;;;;;;;;;5055418;28;20446;-83
2023/03/22 11:50:31;;;;;;;;;;;;;;;;;;5073562;28;19919;-83
2023/03/22 11:53:00;;;;;;;;;;;;;;;;;;5073179;28;19920;-85
2023/03/22 11:55:30;;;;;;;;;;;;;;;;;;5072240;28;20077;-82
2023/03/22 11:57:55;;;;;;;;;;;;;;;;;;5073268;28;19924;-83
2023/03/22 12:00:25;;;;;;;;;;;;;;;;;;5073199;28;19916;-84
2023/03/22 12:02:59;;;;;;;;;;;;;;;;;;5073123;28;20271;-84
2023/03/22 12:05:26;;;;;;;;;;;;;;;;;;5073266;28;19943;-83
2023/03/22 12:08:10;;;;;;;;;;;;;;;;;;5073086;28;20431;-83
2023/03/22 12:10:43;;;;;;;;;;;;;;;;;;5073197;28;20391;-84
2023/03/22 12:13:13;;;;;;;;;;;;;;;;;;5073253;28;20021;-83
2023/03/22 12:15:40;;;;;;;;;;;;;;;;;;5073417;28;19917;-82
2023/03/22 12:18:18;;;;;;;;;;;;;;;;;;5055288;28;20306;-85
2023/03/22 12:20:52;;;;;;;;;;;;;;;;;;5073452;28;19971;-80
2023/03/22 12:23:19;;;;;;;;;;;;;;;;;;5055644;28;19916;-84
2023/03/22 12:26:05;;;;;;;;;;;;;;;;;;5074144;28;19916;-85
2023/03/22 12:28:40;;;;;;;;;;;;;;;;;;5075322;28;19930;-83
2023/03/22 12:31:09;;;;;;;;;;;;;;;;;;5091423;28;19917;-85
2023/03/22 12:33:42;;;;;;;;;;;;;;;;;;5088580;28;19920;-83
2023/03/22 12:36:14;;;;;;;;;;;;;;;;;;5100954;28;19924;-83
2023/03/22 12:38:42;;;;;;;;;;;;;;;;;;5110249;28;19962;-84
2023/03/22 12:41:15;;;;;;;;;;;;;;;;;;5068880;28;19970;-86
2023/03/22 12:43:49;;;;;;;;;;;;;;;;;;5088394;28;19924;-84
2023/03/22 12:46:26;;;;;;;;;;;;;;;;;;5083721;28;19916;-84
2023/03/22 12:49:08;;;;;;;;;;;;;;;;;;5089263;28;19994;-87
2023/03/22 12:51:35;;;;;;;;;;;;;;;;;;5068176;28;19998;-84
2023/03/22 12:54:01;;;;;;;;;;;;;;;;;;5068042;28;20364;-84
2023/03/22 12:56:35;;;;;;;;;;;;;;;;;;5061477;28;19967;-85
2023/03/22 12:59:03;;;;;;;;;;;;;;;;;;5077308;28;19916;-84
2023/03/22 13:01:49;;;;;;;;;;;;;;;;;;5084074;28;20253;-84
2023/03/22 13:04:24;;;;;;;;;;;;;;;;;;5083587;28;19916;-84
2023/03/22 13:06:50;;;;;;;;;;;;;;;;;;5089204;28;19955;-86
2023/03/22 13:09:16;;;;;;;;;;;;;;;;;;5085397;28;19967;-85
2023/03/22 13:11:43;;;;;;;;;;;;;;;;;;5085853;28;19916;-86
2023/03/22 13:14:28;;;;;;;;;;;;;;;;;;5058683;28;19921;-84
2023/03/22 13:16:57;;;;;;;;;;;;;;;;;;5063660;28;20388;-84
2023/03/22 13:19:35;;;;;;;;;;;;;;;;;;5064121;28;19916;-86
2023/03/22 13:22:32;;;;;;;;;;;;;;;;;;5083082;28;19916;-86
2023/03/22 13:25:04;;;;;;;;;;;;;;;;;;5044319;28;19920;-87
2023/03/22 13:27:36;;;;;;;;;;;;;;;;;;5082830;28;19924;-84
2023/03/22 13:30:04;;;;;;;;;;;;;;;;;;5083493;28;20264;-85
2023/03/22 13:32:32;;;;;;;;;;;;;;;;;;5089547;28;19916;-84
2023/03/22 13:34:57;;;;;;;;;;;;;;;;;;5092988;28;19999;-84
2023/03/22 13:37:34;;;;;;;;;;;;;;;;;;5080488;28;20015;-85
2023/03/22 13:40:18;;;;;;;;;;;;;;;;;;5070795;28;20279;-85
2023/03/22 13:42:44;;;;;;;;;;;;;;;;;;5082779;28;19921;-86
2023/03/22 13:45:30;;;;;;;;;;;;;;;;;;5083226;28;19965;-85
2023/03/22 13:48:11;;;;;;;;;;;;;;;;;;5088166;28;19927;-85
2023/03/22 13:50:37;;;;;;;;;;;;;;;;;;5084779;28;20117;-85
2023/03/22 13:53:06;;;;;;;;;;;;;;;;;;5084228;28;20339;-86
2023/03/22 13:55:57;;;;;;;;;;;;;;;;;;5075329;28;19931;-85
2023/03/22 13:58:29;;;;;;;;;;;;;;;;;;5088063;28;19916;-86
2023/03/22 14:00:55;;;;;;;;;;;;;;;;;;5095732;28;19912;-87
2023/03/22 14:03:27;;;;;;;;;;;;;;;;;;5095694;28;19923;-84
2023/03/22 14:06:03;;;;;;;;;;;;;;;;;;5095675;28;19916;-85
2023/03/22 14:08:29;;;;;;;;;;;;;;;;;;5081766;28;19917;-85
2023/03/22 14:10:57;;;;;;;;;;;;;;;;;;5075319;28;19916;-85
2023/03/22 14:13:31;;;;;;;;;;;;;;;;;;5057080;28;19923;-85
2023/03/22 14:16:17;;;;;;;;;;;;;;;;;;5075226;28;19916;-85
2023/03/22 14:18:44;;;;;;;;;;;;;;;;;;5075520;28;19924;-86
2023/03/22 14:21:16;;;;;;;;;;;;;;;;;;5074813;28;19973;-86
2023/03/22 14:23:44;;;;;;;;;;;;;;;;;;5074958;28;19961;-86
2023/03/22 14:26:18;;;;;;;;;;;;;;;;;;5074864;28;19916;-86
2023/03/22 14:28:44;;;;;;;;;;;;;;;;;;5056875;28;19927;-86
2023/03/22 14:31:15;;;;;;;;;;;;;;;;;;5076635;28;19928;-86
2023/03/22 14:33:42;;;;;;;;;;;;;;;;;;5087927;28;19916;-85
2023/03/22 14:36:11;;;;;;;;;;;;;;;;;;5093577;28;20393;-85
2023/03/22 14:38:41;;;;;;;;;;;;;;;;;;5093611;28;19916;-85
2023/03/22 14:41:07;;;;;;;;;;;;;;;;;;5083141;28;20069;-85
2023/03/22 14:43:33;;;;;;;;;;;;;;;;;;5087716;28;20019;-85
2023/03/22 14:46:07;;;;;;;;;;;;;;;;;;5089817;28;19916;-84
2023/03/22 14:48:33;;;;;;;;;;;;;;;;;;5088065;28;19916;-84
2023/03/22 14:51:04;;;;;;;;;;;;;;;;;;5074308;28;19916;-84
2023/03/22 14:53:39;;;;;;;;;;;;;;;;;;5074593;28;19921;-84
2023/03/22 14:56:07;;;;;;;;;;;;;;;;;;5085395;28;19924;-84
2023/03/22 14:58:34;;;;;;;;;;;;;;;;;;5072787;28;20299;-85
2023/03/22 15:01:04;;;;;;;;;;;;;;;;;;5087595;28;19916;-84
2023/03/22 15:03:33;;;;;;;;;;;;;;;;;;5083725;28;19978;-83
2023/03/22 15:05:59;;;;;;;;;;;;;;;;;;5073894;28;20010;-83
2023/03/22 15:08:26;;;;;;;;;;;;;;;;;;5055912;28;19916;-84
2023/03/22 15:10:56;;;;;;;;;;;;;;;;;;5072734;28;20322;-85
2023/03/22 15:13:22;;;;;;;;;;;;;;;;;;5096737;28;19924;-84
2023/03/22 15:15:48;;;;;;;;;;;;;;;;;;5086461;28;20371;-85
2023/03/22 15:18:16;;;;;;;;;;;;;;;;;;5086982;28;19969;-84
2023/03/22 15:20:42;;;;;;;;;;;;;;;;;;5080069;28;19970;-84
2023/03/22 15:23:15;;;;;;;;;;;;;;;;;;5085419;28;19924;-85
2023/03/22 15:25:44;;;;;;;;;;;;;;;;;;5072408;28;19954;-85
2023/03/22 15:28:14;;;;;;;;;;;;;;;;;;5086491;28;19939;-85
2023/03/22 15:30:50;;;;;;;;;;;;;;;;;;5086247;28;19924;-86
2023/03/22 15:33:22;;;;;;;;;;;;;;;;;;5084790;28;20006;-86
2023/03/22 15:35:48;;;;;;;;;;;;;;;;;;5090685;28;19931;-85
2023/03/22 15:38:14;;;;;;;;;;;;;;;;;;5089250;28;20322;-85
2023/03/22 15:40:43;;;;;;;;;;;;;;;;;;5090667;28;19924;-84
2023/03/22 15:43:19;;;;;;;;;;;;;;;;;;5091361;28;20402;-86
2023/03/22 15:46:04;;;;;;;;;;;;;;;;;;5089109;28;19920;-85
2023/03/22 15:48:39;;;;;;;;;;;;;;;;;;5085059;28;19928;-84
2023/03/22 15:51:05;;;;;;;;;;;;;;;;;;5085532;28;19931;-87
2023/03/22 15:53:31;;;;;;;;;;;;;;;;;;5051649;28;19916;-86
2023/03/22 15:55:57;;;;;;;;;;;;;;;;;;5085628;28;20007;-86
2023/03/22 15:58:30;;;;;;;;;;;;;;;;;;5087173;28;20102;-85
2023/03/22 16:01:14;;;;;;;;;;;;;;;;;;5085637;28;19924;-85
2023/03/22 16:03:50;;;;;;;;;;;;;;;;;;5087496;28;19917;-85
2023/03/22 16:06:16;;;;;;;;;;;;;;;;;;5075280;28;19917;-85
2023/03/22 16:08:41;;;;;;;;;;;;;;;;;;5083712;28;20350;-85
2023/03/22 16:11:07;;;;;;;;;;;;;;;;;;5078107;28;19916;-86
2023/03/22 16:13:34;;;;;;;;;;;;;;;;;;5085824;28;19920;-85
2023/03/22 16:16:00;;;;;;;;;;;;;;;;;;5073029;28;19916;-84
2023/03/22 16:18:25;;;;;;;;;;;;;;;;;;5073047;28;20027;-84
2023/03/22 16:20:52;;;;;;;;;;;;;;;;;;5073054;28;19974;-85
2023/03/22 16:23:21;;;;;;;;;;;;;;;;;;5058616;28;19960;-84
2023/03/22 16:25:47;;;;;;;;;;;;;;;;;;5081732;28;19920;-84
2023/03/22 16:28:12;;;;;;;;;;;;;;;;;;5097235;28;20318;-84
2023/03/22 16:30:39;;;;;;;;;;;;;;;;;;5097257;28;20364;-85
2023/03/22 16:33:04;;;;;;;;;;;;;;;;;;5079209;28;20326;-84
2023/03/22 16:35:31;;;;;;;;;;;;;;;;;;5097154;28;19927;-83
2023/03/22 16:37:56;;;;;;;;;;;;;;;;;;5097289;28;19939;-84
2023/03/22 16:40:24;;;;;;;;;;;;;;;;;;5097381;28;20363;-84
2023/03/22 16:42:50;;;;;;;;;;;;;;;;;;5097133;28;19973;-84
2023/03/22 16:45:28;;;;;;;;;;;;;;;;;;5097040;28;19916;-85
2023/03/22 16:47:54;;;;;;;;;;;;;;;;;;5078934;28;19916;-84
2023/03/22 16:50:20;;;;;;;;;;;;;;;;;;5087969;28;19916;-85
2023/03/22 16:52:46;;;;;;;;;;;;;;;;;;5058647;28;19938;-85
2023/03/22 16:55:19;;;;;;;;;;;;;;;;;;5081539;28;19921;-85
2023/03/22 16:57:44;;;;;;;;;;;;;;;;;;5082711;28;19923;-84
2023/03/22 17:00:11;;;;;;;;;;;;;;;;;;5096734;28;19920;-85
2023/03/22 17:02:37;;;;;;;;;;;;;;;;;;5096698;28;19923;-84
2023/03/22 17:05:03;;;;;;;;;;;;;;;;;;5096654;28;20018;-84
2023/03/22 17:07:30;;;;;;;;;;;;;;;;;;5096719;28;19917;-84
2023/03/22 17:09:55;;;;;;;;;;;;;;;;;;5096594;28;19955;-84
2023/03/22 17:12:22;;;;;;;;;;;;;;;;;;5078466;28;19915;-84
2023/03/22 17:14:49;;;;;;;;;;;;;;;;;;5096481;28;19916;-84
2023/03/22 17:17:15;;;;;;;;;;;;;;;;;;5096764;28;19977;-84
2023/03/22 17:19:41;;;;;;;;;;;;;;;;;;5096383;28;20409;-84
2023/03/22 17:22:07;;;;;;;;;;;;;;;;;;5078076;28;19912;-84
2023/03/22 17:24:33;;;;;;;;;;;;;;;;;;5096367;28;20008;-84
2023/03/22 17:26:58;;;;;;;;;;;;;;;;;;5098074;28;19912;-83
2023/03/22 17:29:24;;;;;;;;;;;;;;;;;;5098124;28;19923;-83
2023/03/22 17:31:49;;;;;;;;;;;;;;;;;;5082652;28;20494;-84
2023/03/22 17:34:15;;;;;;;;;;;;;;;;;;5102350;28;19916;-84
2023/03/22 17:36:40;;;;;;;;;;;;;;;;;;5101997;28;19993;-84